Time;durP1;ratioP1;P1;durP2;ratioP2;P2;SDS_P1;SDS_P2;PMS_P1;PMS_P2;Temp;Humidity;BMP_temperature;BMP_pressure;BME280_temperature;BME280_humidity;BME280_pressure;Samples;Min_cycle;Max_cycle;Signal;HPM_P1;HPM_P2
2023/10/09 05:46:15;;;;;;;;;;;;;;;18.24;67.73;97746.75;4214549;28;10271;-66
2023/10/09 05:50:37;;;;;;;;;;;;;;;18.76;66.49;97755.34;4196730;28;5686;-65
2023/10/09 05:53:04;;;;;;;;;;;;;;;18.92;66.00;97748.63;4207076;28;5720;-66
2023/10/09 05:55:48;;;;;;;;;;;;;;;19.08;65.43;97744.50;4212577;28;6370;-66
2023/10/09 06:05:19;;;;;;;;;;;;;;;19.45;63.60;97750.63;4212004;28;5812;-68
2023/10/09 06:07:40;;;;;;;;;;;;;;;19.49;63.04;97751.84;4197415;28;5752;-68
2023/10/09 06:09:52;;;;;;;;;;;;;;;19.54;63.00;97757.34;4198024;28;6404;-67
2023/10/09 06:14:25;;;;;;;;;;;;;;;19.60;62.28;97751.09;4182247;28;5846;-67
2023/10/09 06:16:41;;;;;;;;;;;;;;;19.63;61.97;97755.19;4200380;28;6672;-67
2023/10/09 06:18:53;;;;;;;;;;;;;;;19.66;61.88;97757.41;4214539;28;5695;-68
2023/10/09 06:25:51;;;;;;;;;;;;;;;19.76;61.62;97771.91;4214514;28;5138;-67
2023/10/09 06:27:59;;;;;;;;;;;;;;;19.79;61.40;97770.63;4213587;28;5687;-66
2023/10/09 06:30:23;;;;;;;;;;;;;;;19.81;61.65;97779.25;4210116;28;5714;-71
2023/10/09 06:32:34;;;;;;;;;;;;;;;19.82;61.83;97777.41;4203927;28;5819;-72
2023/10/09 06:34:44;;;;;;;;;;;;;;;19.83;61.58;97782.56;4206019;28;5774;-74
2023/10/09 06:36:52;;;;;;;;;;;;;;;19.85;61.60;97779.66;4208010;28;5841;-72
2023/10/09 06:39:50;;;;;;;;;;;;;;;19.85;61.85;97777.78;4203623;28;5687;-72
2023/10/09 06:41:34;;;;;;;;;;;;;;;19.87;61.57;97780.25;4212175;28;5774;-72
2023/10/09 06:43:53;;;;;;;;;;;;;;;19.88;61.56;97776.50;4211988;28;5695;-73
2023/10/09 06:45:57;;;;;;;;;;;;;;;19.89;61.88;97778.97;4208543;28;5087;-72
2023/10/09 06:48:09;;;;;;;;;;;;;;;19.91;61.98;97778.72;4202301;28;5910;-72
2023/10/09 06:50:24;;;;;;;;;;;;;;;19.92;61.72;97780.34;4196728;28;5917;-72
2023/10/09 06:52:57;;;;;;;;;;;;;;;19.93;62.01;97787.34;4196551;28;5781;-73
2023/10/09 06:54:50;;;;;;;;;;;;;;;19.92;62.06;97785.72;4201019;28;5687;-72
2023/10/09 06:57:13;;;;;;;;;;;;;;;19.92;62.26;97783.03;4202412;28;5773;-72
2023/10/09 06:59:21;;;;;;;;;;;;;;;19.93;61.93;97787.34;4186224;28;5892;-72
2023/10/09 07:01:39;;;;;;;;;;;;;;;19.95;62.24;97791.47;4185932;28;5980;-72
2023/10/09 07:03:53;;;;;;;;;;;;;;;19.97;61.81;97793.94;4197385;28;5761;-72
2023/10/09 07:06:09;;;;;;;;;;;;;;;19.98;62.16;97792.88;4186834;28;5805;-70
2023/10/09 07:10:39;;;;;;;;;;;;;;;19.99;62.06;97786.47;4202062;28;5798;-71
2023/10/09 07:12:44;;;;;;;;;;;;;;;20.01;61.88;97797.78;4201956;28;5684;-71
2023/10/09 07:16:23;;;;;;;;;;;;;;;20.02;62.18;97789.50;4193554;28;5787;-71
2023/10/09 07:20:08;;;;;;;;;;;;;;;20.07;61.92;97794.19;4185817;28;5803;-71
2023/10/09 07:22:23;;;;;;;;;;;;;;;20.09;62.21;97800.16;4187206;28;6877;-71
2023/10/09 07:24:37;;;;;;;;;;;;;;;20.12;61.80;97797.00;4186020;28;5806;-71
2023/10/09 07:26:47;;;;;;;;;;;;;;;20.12;61.82;97794.31;4198497;28;5742;-71
2023/10/09 07:28:50;;;;;;;;;;;;;;;20.13;61.68;97801.31;4198614;28;5750;-71
2023/10/09 07:30:57;;;;;;;;;;;;;;;20.16;62.18;97802.72;4201573;28;5683;-72
2023/10/09 07:33:16;;;;;;;;;;;;;;;20.20;62.15;97803.91;4202082;28;6556;-72
2023/10/09 07:35:46;;;;;;;;;;;;;;;20.20;61.88;97804.72;4188877;28;6400;-72
2023/10/09 07:37:50;;;;;;;;;;;;;;;20.21;61.84;97803.69;4200964;28;5794;-71
2023/10/09 07:39:58;;;;;;;;;;;;;;;20.23;62.06;97804.25;4185317;28;5723;-72
2023/10/09 07:42:19;;;;;;;;;;;;;;;20.25;62.00;97806.72;4185485;28;6599;-72
2023/10/09 07:46:53;;;;;;;;;;;;;;;20.28;61.53;97812.47;4201498;28;5714;-70
2023/10/09 07:48:55;;;;;;;;;;;;;;;20.30;61.68;97813.03;4194224;28;5832;-70
2023/10/09 07:50:59;;;;;;;;;;;;;;;20.31;61.75;97819.22;4185131;28;5927;-69
2023/10/09 07:53:17;;;;;;;;;;;;;;;20.31;61.84;97817.38;4185205;28;5716;-70
2023/10/09 07:55:29;;;;;;;;;;;;;;;20.34;61.83;97821.44;4194525;28;5743;-70
2023/10/09 07:57:39;;;;;;;;;;;;;;;20.35;61.64;97817.72;4200965;28;5720;-70
2023/10/09 07:59:54;;;;;;;;;;;;;;;20.35;61.49;97823.91;4188856;28;5815;-70
2023/10/09 08:02:02;;;;;;;;;;;;;;;20.38;61.45;97821.78;4189582;28;6351;-70
2023/10/09 08:04:11;;;;;;;;;;;;;;;20.39;61.88;97828.81;4201083;28;5806;-70
2023/10/09 08:09:17;;;;;;;;;;;;;;;20.41;61.65;97824.03;4200765;28;5846;-70
2023/10/09 08:15:56;;;;;;;;;;;;;;;20.45;61.75;97827.91;4188950;28;5762;-71
2023/10/09 08:17:59;;;;;;;;;;;;;;;20.46;61.45;97826.88;4200682;28;5691;-70
2023/10/09 08:20:11;;;;;;;;;;;;;;;20.48;61.66;97822.06;4200904;28;5699;-70
2023/10/09 08:24:41;;;;;;;;;;;;;;;20.50;61.35;97823.50;4200972;28;6350;-70
2023/10/09 08:27:27;;;;;;;;;;;;;;;20.52;61.30;97823.28;4201123;28;5692;-70
2023/10/09 08:29:20;;;;;;;;;;;;;;;20.53;61.60;97827.59;4200930;28;5742;-70
2023/10/09 08:31:45;;;;;;;;;;;;;;;20.56;61.32;97830.63;4197035;28;5716;-70
2023/10/09 08:33:56;;;;;;;;;;;;;;;20.56;61.22;97825.25;4200252;28;5750;-69
2023/10/09 08:36:05;;;;;;;;;;;;;;;20.58;61.24;97825.03;4200739;28;5703;-69
2023/10/09 08:38:07;;;;;;;;;;;;;;;20.56;60.94;97819.06;4201033;28;5709;-69
2023/10/09 08:40:16;;;;;;;;;;;;;;;20.57;61.07;97821.50;4184281;28;5804;-69
2023/10/09 08:42:19;;;;;;;;;;;;;;;20.59;61.22;97818.59;4185714;28;5839;-69
2023/10/09 08:44:25;;;;;;;;;;;;;;;20.60;61.30;97829.09;4199644;28;5699;-69
2023/10/09 08:46:28;;;;;;;;;;;;;;;20.62;61.30;97828.91;4200308;28;5902;-69
2023/10/09 08:48:31;;;;;;;;;;;;;;;20.62;61.25;97829.72;4196155;28;5691;-68
2023/10/09 08:50:36;;;;;;;;;;;;;;;20.65;61.15;97828.44;4200685;28;5770;-68
2023/10/09 08:52:40;;;;;;;;;;;;;;;20.66;60.89;97827.38;4200743;28;5770;-68
2023/10/09 08:54:44;;;;;;;;;;;;;;;20.67;60.97;97830.88;4199614;28;7754;-69
2023/10/09 08:56:51;;;;;;;;;;;;;;;20.68;60.80;97827.94;4200562;28;5803;-69
2023/10/09 08:58:57;;;;;;;;;;;;;;;20.68;61.12;97827.13;4197947;28;5708;-69
2023/10/09 09:01:00;;;;;;;;;;;;;;;20.70;60.84;97830.41;4200865;28;5684;-69
2023/10/09 09:03:05;;;;;;;;;;;;;;;20.72;60.88;97817.53;4184675;28;5815;-69
2023/10/09 09:05:17;;;;;;;;;;;;;;;20.74;60.87;97821.66;4183365;28;5851;-69
2023/10/09 09:07:28;;;;;;;;;;;;;;;20.76;61.28;97824.94;4196350;28;8558;-69
2023/10/09 09:09:33;;;;;;;;;;;;;;;20.77;60.97;97825.75;4200218;28;5683;-68
2023/10/09 09:11:48;;;;;;;;;;;;;;;20.77;61.12;97820.38;4200491;28;5695;-68
2023/10/09 09:14:06;;;;;;;;;;;;;;;20.79;60.73;97823.63;4197616;28;5699;-68
2023/10/09 09:16:20;;;;;;;;;;;;;;;20.80;60.84;97826.09;4200009;28;5758;-68
2023/10/09 09:18:23;;;;;;;;;;;;;;;20.82;61.13;97823.97;4205287;28;5742;-68
2023/10/09 09:20:31;;;;;;;;;;;;;;;20.83;60.72;97824.78;4200389;28;5783;-68
2023/10/09 09:22:53;;;;;;;;;;;;;;;20.85;60.72;97826.22;4200373;28;5774;-69
2023/10/09 09:25:03;;;;;;;;;;;;;;;20.85;60.80;97825.41;4198500;28;5839;-68
2023/10/09 09:27:20;;;;;;;;;;;;;;;20.85;61.06;97818.16;4200085;28;5687;-68
2023/10/09 09:29:23;;;;;;;;;;;;;;;20.85;60.64;97818.16;4193884;28;5727;-68
2023/10/09 09:31:26;;;;;;;;;;;;;;;20.86;60.97;97817.09;4200456;28;5691;-68
2023/10/09 09:33:39;;;;;;;;;;;;;;;20.89;60.77;97819.31;4200239;28;5706;-69
2023/10/09 09:35:57;;;;;;;;;;;;;;;20.90;61.13;97809.38;4184352;28;5732;-68
2023/10/09 09:38:04;;;;;;;;;;;;;;;20.88;61.27;97798.06;4191455;28;5699;-68
2023/10/09 09:40:14;;;;;;;;;;;;;;;20.89;61.34;97803.19;4200062;28;5714;-69
2023/10/09 09:42:24;;;;;;;;;;;;;;;20.90;61.28;97804.81;4197410;28;5699;-66
2023/10/09 09:44:30;;;;;;;;;;;;;;;20.91;60.91;97802.94;4199741;28;5703;-66
2023/10/09 09:46:34;;;;;;;;;;;;;;;20.92;60.86;97797.34;4196061;28;5849;-66
2023/10/09 09:48:44;;;;;;;;;;;;;;;20.94;61.02;97797.09;4195630;28;5810;-65
2023/10/09 09:50:47;;;;;;;;;;;;;;;20.95;61.24;97801.41;4199868;28;6030;-65
2023/10/09 09:52:53;;;;;;;;;;;;;;;20.96;61.20;97799.59;4199274;28;5792;-66
2023/10/09 09:54:58;;;;;;;;;;;;;;;20.99;60.94;97801.78;4198743;28;5786;-66
2023/10/09 09:57:08;;;;;;;;;;;;;;;20.99;61.29;97796.41;4199513;28;5785;-65
2023/10/09 09:59:21;;;;;;;;;;;;;;;21.01;61.38;97802.38;4193308;28;5704;-66
2023/10/09 10:01:35;;;;;;;;;;;;;;;21.02;60.84;97795.94;4190513;28;5732;-65
2023/10/09 10:03:43;;;;;;;;;;;;;;;21.01;61.12;97802.38;4190392;28;5724;-66
2023/10/09 10:05:48;;;;;;;;;;;;;;;21.02;61.31;97802.13;4199604;28;5672;-65
2023/10/09 10:07:55;;;;;;;;;;;;;;;21.03;61.34;97798.38;4196556;28;5922;-65
2023/10/09 10:09:57;;;;;;;;;;;;;;;21.04;61.11;97796.50;4194168;28;5708;-65
2023/10/09 10:12:04;;;;;;;;;;;;;;;21.03;61.12;97792.19;4198831;28;7701;-66
2023/10/09 10:14:11;;;;;;;;;;;;;;;21.06;61.10;97791.72;4200219;28;5710;-66
2023/10/09 10:16:20;;;;;;;;;;;;;;;21.08;60.93;97789.63;4189957;28;5775;-71
2023/10/09 10:18:24;;;;;;;;;;;;;;;21.09;61.12;97791.25;4185797;28;5724;-72
2023/10/09 10:20:31;;;;;;;;;;;;;;;21.09;60.99;97792.06;4193444;28;5687;-72
2023/10/09 10:22:37;;;;;;;;;;;;;;;21.10;60.91;97784.84;4202594;28;5785;-71
2023/10/09 10:24:54;;;;;;;;;;;;;;;21.11;60.80;97789.97;4203349;28;5699;-73
2023/10/09 10:27:26;;;;;;;;;;;;;;;21.13;60.79;97787.03;4202730;28;5706;-73
2023/10/09 10:29:34;;;;;;;;;;;;;;;21.17;60.47;97793.56;4203325;28;5778;-72
2023/10/09 10:32:00;;;;;;;;;;;;;;;21.15;60.57;97784.94;4203405;28;5789;-73
2023/10/09 10:34:10;;;;;;;;;;;;;;;21.18;60.22;97784.47;4198836;28;5710;-72
2023/10/09 10:36:22;;;;;;;;;;;;;;;21.19;60.29;97791.50;4202956;28;5808;-72
2023/10/09 10:38:36;;;;;;;;;;;;;;;21.20;59.92;97777.81;4201844;28;5779;-73
2023/10/09 10:40:38;;;;;;;;;;;;;;;21.21;59.67;97782.13;4201578;28;5695;-73
2023/10/09 10:43:09;;;;;;;;;;;;;;;21.22;59.98;97772.19;4203076;28;5727;-72
2023/10/09 10:45:34;;;;;;;;;;;;;;;21.23;59.59;97765.75;4203060;28;5691;-73
2023/10/09 10:47:40;;;;;;;;;;;;;;;21.21;59.61;97768.69;4203200;28;5789;-73
2023/10/09 10:49:50;;;;;;;;;;;;;;;21.21;59.74;97765.16;4199319;28;5835;-79
2023/10/09 10:52:01;;;;;;;;;;;;;;;21.22;59.29;97764.13;4195221;28;5763;-79
2023/10/09 10:54:34;;;;;;;;;;;;;;;21.22;59.23;97753.34;4198678;28;5404;-79
2023/10/09 10:56:49;;;;;;;;;;;;;;;21.25;58.98;97755.56;4186403;28;5802;-79
2023/10/09 10:59:11;;;;;;;;;;;;;;;21.27;59.15;97752.66;4195492;28;5707;-80
2023/10/09 11:01:15;;;;;;;;;;;;;;;21.28;58.85;97757.81;4199419;28;5688;-80
2023/10/09 11:03:23;;;;;;;;;;;;;;;21.29;58.94;97751.38;4202770;28;5699;-80
2023/10/09 11:05:38;;;;;;;;;;;;;;;21.30;58.31;97749.53;4198828;28;5683;-80
2023/10/09 11:07:43;;;;;;;;;;;;;;;21.31;58.30;97740.41;4202710;28;5699;-79
2023/10/09 11:10:09;;;;;;;;;;;;;;;21.32;58.38;97750.09;4202777;28;5691;-80
2023/10/09 11:12:22;;;;;;;;;;;;;;;21.33;57.99;97749.84;4197509;28;6772;-80
2023/10/09 11:14:25;;;;;;;;;;;;;;;21.36;57.96;97748.56;4219643;28;5666;-80
2023/10/09 11:16:41;;;;;;;;;;;;;;;21.38;58.02;97751.81;4199242;28;5841;-80
2023/10/09 11:18:46;;;;;;;;;;;;;;;21.39;58.01;97748.88;4202667;28;5695;-79
2023/10/09 11:20:58;;;;;;;;;;;;;;;21.41;57.72;97746.78;4197645;28;5723;-79
2023/10/09 11:23:14;;;;;;;;;;;;;;;21.43;57.38;97739.28;4201149;28;5071;-82
2023/10/09 11:25:18;;;;;;;;;;;;;;;21.45;57.63;97739.88;4195457;28;5873;-80
2023/10/09 11:27:24;;;;;;;;;;;;;;;21.47;57.31;97740.44;4201290;28;5814;-80
2023/10/09 11:29:31;;;;;;;;;;;;;;;21.47;57.32;97734.25;4202062;28;5766;-80
2023/10/09 11:31:33;;;;;;;;;;;;;;;21.47;57.17;97729.69;4202005;28;5794;-80
2023/10/09 11:33:46;;;;;;;;;;;;;;;21.49;57.00;97726.75;4201521;28;5807;-79
2023/10/09 11:35:57;;;;;;;;;;;;;;;21.52;56.52;97720.91;4201517;28;5690;-79
2023/10/09 11:38:00;;;;;;;;;;;;;;;21.51;56.10;97730.81;4201595;28;5698;-80
2023/10/09 11:40:08;;;;;;;;;;;;;;;21.53;56.51;97729.78;4186310;28;8583;-80
2023/10/09 11:42:30;;;;;;;;;;;;;;;21.55;55.81;97719.59;4198104;28;5783;-80
2023/10/09 11:44:39;;;;;;;;;;;;;;;21.56;56.00;97713.97;4198617;28;5992;-78
2023/10/09 11:46:58;;;;;;;;;;;;;;;21.57;55.45;97710.22;4195461;28;5690;-80
2023/10/09 11:51:38;;;;;;;;;;;;;;;21.61;55.50;97708.69;4178185;28;5703;-79
2023/10/09 11:53:43;;;;;;;;;;;;;;;21.63;54.89;97706.59;4201047;28;5857;-80
2023/10/09 11:55:48;;;;;;;;;;;;;;;21.64;55.03;97702.84;4198436;28;6472;-79
2023/10/09 11:57:50;;;;;;;;;;;;;;;21.65;55.07;97693.69;4201567;28;5702;-79
2023/10/09 11:59:53;;;;;;;;;;;;;;;21.66;54.71;97689.13;4208662;28;5887;-79
2023/10/09 12:02:00;;;;;;;;;;;;;;;21.65;54.85;97685.63;4198622;28;5695;-79
2023/10/09 12:04:04;;;;;;;;;;;;;;;21.65;54.48;97682.13;4200745;28;5718;-80
2023/10/09 12:06:12;;;;;;;;;;;;;;;21.66;54.45;97675.69;4200103;28;5735;-80
2023/10/09 12:08:16;;;;;;;;;;;;;;;21.67;54.45;97685.38;4195476;28;5720;-80
2023/10/09 12:10:24;;;;;;;;;;;;;;;21.68;54.46;97673.56;4194266;28;5686;-80
2023/10/09 12:12:27;;;;;;;;;;;;;;;21.71;54.35;97673.06;4185248;28;5951;-80
2023/10/09 12:14:33;;;;;;;;;;;;;;;21.73;53.89;97674.44;4195245;28;7723;-80
2023/10/09 12:16:39;;;;;;;;;;;;;;;21.74;53.75;97664.50;4201345;28;5683;-80
2023/10/09 12:18:48;;;;;;;;;;;;;;;21.76;53.75;97663.22;4193867;28;5699;-79
2023/10/09 12:20:51;;;;;;;;;;;;;;;21.77;53.67;97666.72;4199386;28;6330;-79
2023/10/09 12:22:57;;;;;;;;;;;;;;;21.78;53.48;97665.66;4200492;28;5854;-80
2023/10/09 12:25:09;;;;;;;;;;;;;;;21.80;53.12;97660.84;4201176;28;5691;-80
2023/10/09 12:27:12;;;;;;;;;;;;;;;21.80;53.52;97663.53;4199126;28;5781;-79
2023/10/09 12:29:15;;;;;;;;;;;;;;;21.81;52.93;97657.09;4201297;28;5062;-79
2023/10/09 12:31:19;;;;;;;;;;;;;;;21.81;52.96;97649.03;4201351;28;5722;-79
2023/10/09 12:33:27;;;;;;;;;;;;;;;21.81;52.40;97649.03;4201173;28;5694;-78
2023/10/09 12:35:33;;;;;;;;;;;;;;;21.83;52.39;97646.91;4200372;28;5880;-79
2023/10/09 12:37:37;;;;;;;;;;;;;;;21.85;52.43;97647.47;4198960;28;5776;-79
2023/10/09 12:39:40;;;;;;;;;;;;;;;21.86;51.89;97646.44;4194244;28;5719;-79
2023/10/09 12:41:45;;;;;;;;;;;;;;;21.90;52.13;97642.19;4193469;28;5688;-79
2023/10/09 12:43:48;;;;;;;;;;;;;;;21.92;51.75;97640.06;4199961;28;5698;-79
2023/10/09 12:45:51;;;;;;;;;;;;;;;21.95;51.65;97639.56;4192770;28;5717;-79
2023/10/09 12:47:58;;;;;;;;;;;;;;;21.96;51.64;97641.19;4200033;28;5812;-79
2023/10/09 12:50:02;;;;;;;;;;;;;;;21.98;51.47;97640.97;4197639;28;5683;-79
2023/10/09 12:52:15;;;;;;;;;;;;;;;21.99;51.52;97635.31;4196742;28;5773;-79
2023/10/09 12:54:20;;;;;;;;;;;;;;;22.00;51.10;97636.97;4191994;28;5707;-79
2023/10/09 12:56:23;;;;;;;;;;;;;;;22.02;50.90;97623.25;4193907;28;5769;-79
2023/10/09 12:58:27;;;;;;;;;;;;;;;22.02;51.04;97618.69;4193059;28;5854;-79
2023/10/09 13:00:32;;;;;;;;;;;;;;;22.04;50.56;97621.13;4188665;28;5941;-78
2023/10/09 13:02:35;;;;;;;;;;;;;;;22.05;50.32;97623.56;4193650;28;5856;-80
2023/10/09 13:04:41;;;;;;;;;;;;;;;22.05;50.09;97618.19;4199968;28;5824;-78
2023/10/09 13:06:45;;;;;;;;;;;;;;;22.04;50.37;97616.53;4194859;28;5845;-79
2023/10/09 13:08:48;;;;;;;;;;;;;;;22.03;50.24;97614.91;4193848;28;5789;-79
2023/10/09 13:10:58;;;;;;;;;;;;;;;22.05;50.27;97612.78;4199524;28;5687;-80
2023/10/09 13:13:05;;;;;;;;;;;;;;;22.08;50.19;97606.13;4199667;28;5696;-78
2023/10/09 13:15:10;;;;;;;;;;;;;;;22.11;50.04;97599.44;4198115;28;5805;-79
2023/10/09 13:17:14;;;;;;;;;;;;;;;22.13;49.66;97605.41;4199059;28;5793;-79
2023/10/09 13:19:17;;;;;;;;;;;;;;;22.15;49.79;97595.19;4198906;28;5758;-79
2023/10/09 13:21:21;;;;;;;;;;;;;;;22.16;49.35;97583.34;4193240;28;5699;-80
2023/10/09 13:23:33;;;;;;;;;;;;;;;22.17;49.53;97598.44;4188453;28;5783;-80
2023/10/09 13:25:39;;;;;;;;;;;;;;;22.17;49.33;97584.97;4192490;28;5791;-80
2023/10/09 13:27:50;;;;;;;;;;;;;;;22.19;49.21;97588.22;4188033;28;5836;-80
2023/10/09 13:29:53;;;;;;;;;;;;;;;22.21;49.58;97588.81;4185721;28;5724;-80
2023/10/09 13:32:02;;;;;;;;;;;;;;;22.22;49.52;97577.81;4199240;28;5726;-79
2023/10/09 13:34:09;;;;;;;;;;;;;;;22.24;49.29;97575.66;4199683;28;5790;-80
2023/10/09 13:36:19;;;;;;;;;;;;;;;22.26;48.88;97576.22;4193045;28;5690;-79
2023/10/09 13:38:22;;;;;;;;;;;;;;;22.28;48.87;97576.78;4186945;28;5826;-79
2023/10/09 13:40:28;;;;;;;;;;;;;;;22.30;48.87;97571.16;4196935;28;5878;-79
2023/10/09 13:42:32;;;;;;;;;;;;;;;22.30;48.76;97566.56;4189341;28;5716;-79
2023/10/09 13:44:34;;;;;;;;;;;;;;;22.31;48.84;97572.78;4183927;28;5756;-79
2023/10/09 13:46:41;;;;;;;;;;;;;;;22.31;49.25;97570.09;4186574;28;5885;-79
2023/10/09 13:48:46;;;;;;;;;;;;;;;22.29;49.11;97570.34;4199144;28;5805;-80
2023/10/09 13:50:49;;;;;;;;;;;;;;;22.27;49.06;97561.69;4198674;28;5703;-80
2023/10/09 13:52:54;;;;;;;;;;;;;;;22.29;49.11;97556.06;4197600;28;5992;-80
2023/10/09 13:54:58;;;;;;;;;;;;;;;22.29;49.17;97558.75;4198179;28;5691;-78
2023/10/09 13:57:04;;;;;;;;;;;;;;;22.28;48.99;97557.13;4202567;28;5699;-80
2023/10/09 13:59:10;;;;;;;;;;;;;;;22.26;48.83;97554.69;4203007;28;5782;-80
2023/10/09 14:01:20;;;;;;;;;;;;;;;22.26;49.25;97554.69;4203224;28;5691;-79
2023/10/09 14:03:27;;;;;;;;;;;;;;;22.28;49.22;97557.94;4203596;28;5805;-80
2023/10/09 14:05:33;;;;;;;;;;;;;;;22.28;48.99;97544.47;4204191;28;5695;-80
2023/10/09 14:07:37;;;;;;;;;;;;;;;22.28;48.80;97552.56;4202545;28;5691;-80
2023/10/09 14:09:45;;;;;;;;;;;;;;;22.28;48.91;97547.16;4203339;28;6412;-80
2023/10/09 14:11:52;;;;;;;;;;;;;;;22.29;48.93;97556.06;4199847;28;5694;-80
2023/10/09 14:13:55;;;;;;;;;;;;;;;22.29;48.77;97547.97;4203688;28;5773;-80
2023/10/09 14:16:23;;;;;;;;;;;;;;;22.29;48.92;97547.97;4203079;28;6434;-79
2023/10/09 14:18:29;;;;;;;;;;;;;;;22.30;49.24;97544.22;4193178;28;5687;-79
2023/10/09 14:20:34;;;;;;;;;;;;;;;22.29;49.30;97538.00;4199824;28;6412;-78
2023/10/09 14:22:38;;;;;;;;;;;;;;;22.29;49.02;97535.31;4193544;28;5820;-79
2023/10/09 14:24:44;;;;;;;;;;;;;;;22.32;49.47;97534.03;4200138;28;5778;-79
2023/10/09 14:26:48;;;;;;;;;;;;;;;22.33;48.82;97532.97;4202400;28;5843;-80
2023/10/09 14:28:52;;;;;;;;;;;;;;;22.35;49.14;97528.13;4202856;28;5694;-79
2023/10/09 14:30:59;;;;;;;;;;;;;;;22.36;48.89;97522.50;4201190;28;5707;-78
2023/10/09 14:33:03;;;;;;;;;;;;;;;22.37;49.08;97521.44;4198998;28;5699;-79
2023/10/09 14:35:12;;;;;;;;;;;;;;;22.37;49.32;97523.31;4201801;28;5687;-79
2023/10/09 14:37:18;;;;;;;;;;;;;;;22.39;48.97;97526.56;4195132;28;5695;-79
2023/10/09 14:39:26;;;;;;;;;;;;;;;22.39;49.47;97521.16;4201833;28;5812;-79
2023/10/09 14:41:32;;;;;;;;;;;;;;;22.42;49.20;97512.56;4205869;28;5802;-79
2023/10/09 14:43:35;;;;;;;;;;;;;;;22.44;49.12;97510.47;4190787;28;5079;-66
2023/10/09 14:45:39;;;;;;;;;;;;;;;22.45;49.41;97509.41;4187003;28;5918;-66
2023/10/09 14:47:42;;;;;;;;;;;;;;;22.44;49.68;97510.47;4193450;28;5753;-67
2023/10/09 14:49:48;;;;;;;;;;;;;;;22.44;49.60;97506.97;4196733;28;5733;-67
2023/10/09 14:51:51;;;;;;;;;;;;;;;22.45;49.61;97508.59;4199780;28;5710;-67
2023/10/09 14:54:01;;;;;;;;;;;;;;;22.45;49.91;97503.22;4197412;28;5699;-67
2023/10/09 14:56:08;;;;;;;;;;;;;;;22.46;49.48;97504.84;4196373;28;5724;-67
2023/10/09 14:58:12;;;;;;;;;;;;;;;22.48;49.57;97511.59;4196780;28;5762;-67
2023/10/09 15:00:22;;;;;;;;;;;;;;;22.49;49.93;97505.13;4202732;28;6626;-67
2023/10/09 15:02:26;;;;;;;;;;;;;;;22.49;49.86;97510.53;4196825;28;5695;-67
2023/10/09 15:04:29;;;;;;;;;;;;;;;22.49;49.72;97499.75;4201226;28;5994;-66
2023/10/09 15:06:33;;;;;;;;;;;;;;;22.50;49.56;97503.25;4201218;28;5778;-66
2023/10/09 15:08:36;;;;;;;;;;;;;;;22.48;49.95;97498.13;4198058;28;5803;-67
2023/10/09 15:10:48;;;;;;;;;;;;;;;22.48;49.68;97506.19;4193965;28;5123;-67
2023/10/09 15:12:51;;;;;;;;;;;;;;;22.49;49.96;97507.00;4189604;28;5791;-67
2023/10/09 15:14:56;;;;;;;;;;;;;;;22.50;50.09;97495.16;4197396;28;5898;-67
2023/10/09 15:16:59;;;;;;;;;;;;;;;22.50;50.03;97495.97;4199603;28;5866;-67
2023/10/09 15:19:03;;;;;;;;;;;;;;;22.49;49.96;97497.06;4201254;28;5789;-66
2023/10/09 15:21:06;;;;;;;;;;;;;;;22.50;50.06;97497.88;4192782;28;5851;-67
2023/10/09 15:23:09;;;;;;;;;;;;;;;22.49;50.31;97493.53;4202306;28;5841;-67
2023/10/09 15:25:14;;;;;;;;;;;;;;;22.51;50.38;97494.91;4198063;28;5729;-66
2023/10/09 15:27:19;;;;;;;;;;;;;;;22.52;50.65;97493.84;4201835;28;5714;-66
2023/10/09 15:29:23;;;;;;;;;;;;;;;22.52;50.97;97498.41;4200264;28;5209;-66
2023/10/09 15:31:27;;;;;;;;;;;;;;;22.52;50.99;97495.72;4196540;28;5929;-65
2023/10/09 15:33:31;;;;;;;;;;;;;;;22.50;50.88;97490.59;4200057;28;5849;-66
2023/10/09 15:35:40;;;;;;;;;;;;;;;22.49;51.02;97491.66;4197504;28;5810;-66
2023/10/09 15:37:43;;;;;;;;;;;;;;;22.49;50.84;97488.97;4200259;28;6484;-66
2023/10/09 15:39:47;;;;;;;;;;;;;;;22.49;50.90;97493.53;4200420;28;5781;-66
2023/10/09 15:41:50;;;;;;;;;;;;;;;22.50;50.69;97495.97;4198293;28;5877;-66
2023/10/09 15:43:56;;;;;;;;;;;;;;;22.49;50.86;97491.66;4200801;28;5820;-66
2023/10/09 15:45:59;;;;;;;;;;;;;;;22.48;51.07;97483.84;4200276;28;5321;-66
2023/10/09 15:48:04;;;;;;;;;;;;;;;22.47;51.05;97496.50;4198269;28;5695;-66
2023/10/09 15:50:09;;;;;;;;;;;;;;;22.48;50.87;97489.22;4200846;28;5687;-67
2023/10/09 15:52:14;;;;;;;;;;;;;;;22.46;51.03;97488.66;4200026;28;5708;-67
2023/10/09 15:54:19;;;;;;;;;;;;;;;22.45;50.58;97493.25;4200839;28;5894;-67
2023/10/09 15:56:21;;;;;;;;;;;;;;;22.45;51.05;97485.16;4200885;28;7829;-67
2023/10/09 15:58:24;;;;;;;;;;;;;;;22.44;50.92;97480.84;4198328;28;5905;-66
2023/10/09 16:00:29;;;;;;;;;;;;;;;22.43;50.80;97490.00;4200279;28;5691;-66
2023/10/09 16:02:32;;;;;;;;;;;;;;;22.44;50.49;97490.81;4200852;28;6400;-66
2023/10/09 16:04:34;;;;;;;;;;;;;;;22.42;50.69;97491.03;4198635;28;5703;-68
2023/10/09 16:06:39;;;;;;;;;;;;;;;22.42;50.57;97496.41;4195980;28;5794;-66
2023/10/09 16:08:45;;;;;;;;;;;;;;;22.41;50.79;97489.41;4201057;28;5687;-66
2023/10/09 16:10:47;;;;;;;;;;;;;;;22.41;50.63;97494.78;4200728;28;5691;-66
2023/10/09 16:12:51;;;;;;;;;;;;;;;22.39;51.07;97494.22;4200653;28;5794;-66
2023/10/09 16:14:54;;;;;;;;;;;;;;;22.40;50.56;97495.03;4200675;28;5232;-65
2023/10/09 16:16:59;;;;;;;;;;;;;;;22.38;51.04;97500.69;4200473;28;5711;-65
2023/10/09 16:19:02;;;;;;;;;;;;;;;22.37;51.13;97493.69;4199716;28;5779;-66
2023/10/09 16:21:07;;;;;;;;;;;;;;;22.36;50.64;97489.34;4200437;28;5682;-66
2023/10/09 16:23:10;;;;;;;;;;;;;;;22.36;50.66;97500.94;4192364;28;5826;-68
2023/10/09 16:25:13;;;;;;;;;;;;;;;22.35;51.13;97493.13;4200487;28;5703;-66
2023/10/09 16:27:19;;;;;;;;;;;;;;;22.34;51.10;97495.00;4200788;28;6384;-67
2023/10/09 16:29:22;;;;;;;;;;;;;;;22.33;50.74;97496.06;4200516;28;5893;-67
2023/10/09 16:31:25;;;;;;;;;;;;;;;22.35;50.80;97498.50;4200504;28;5777;-67
2023/10/09 16:33:31;;;;;;;;;;;;;;;22.33;51.31;97490.69;4200213;28;5825;-66
2023/10/09 16:35:37;;;;;;;;;;;;;;;22.33;51.25;97500.63;4200198;28;5943;-66
2023/10/09 16:37:41;;;;;;;;;;;;;;;22.32;51.35;97499.84;4200326;28;5786;-66
2023/10/09 16:39:45;;;;;;;;;;;;;;;22.32;51.34;97502.53;4200280;28;5692;-66
2023/10/09 16:41:48;;;;;;;;;;;;;;;22.31;51.17;97492.81;4200103;28;7708;-66
2023/10/09 16:43:52;;;;;;;;;;;;;;;22.29;51.11;97499.50;4200077;28;6369;-66
2023/10/09 16:45:58;;;;;;;;;;;;;;;22.30;51.45;97501.13;4200073;28;5176;-67
2023/10/09 16:48:03;;;;;;;;;;;;;;;22.30;51.06;97498.44;4200155;28;5786;-67
2023/10/09 16:50:11;;;;;;;;;;;;;;;22.28;51.14;97498.69;4190979;28;5791;-67
2023/10/09 16:52:14;;;;;;;;;;;;;;;22.29;51.22;97504.88;4199294;28;5774;-67
2023/10/09 16:54:17;;;;;;;;;;;;;;;22.27;51.73;97499.75;4199984;28;5695;-67
2023/10/09 16:56:20;;;;;;;;;;;;;;;22.26;51.66;97503.50;4199667;28;5815;-67
2023/10/09 16:58:23;;;;;;;;;;;;;;;22.25;51.51;97496.50;4199689;28;5695;-67
2023/10/09 17:00:34;;;;;;;;;;;;;;;22.23;51.87;97500.50;4199716;28;5771;-67
2023/10/09 17:02:38;;;;;;;;;;;;;;;22.23;51.85;97500.50;4199816;28;5698;-67
2023/10/09 17:04:42;;;;;;;;;;;;;;;22.21;51.56;97503.47;4199758;28;5792;-67
2023/10/09 17:06:51;;;;;;;;;;;;;;;22.20;51.86;97495.59;4199445;28;5724;-67
2023/10/09 17:08:55;;;;;;;;;;;;;;;22.18;52.15;97497.75;4199642;28;5821;-67
2023/10/09 17:10:59;;;;;;;;;;;;;;;22.18;52.08;97503.13;4199776;28;5770;-65
2023/10/09 17:13:03;;;;;;;;;;;;;;;22.17;51.71;97504.19;4199673;28;5770;-66
2023/10/09 17:15:08;;;;;;;;;;;;;;;22.15;52.03;97499.06;4199725;28;5707;-66
2023/10/09 17:17:11;;;;;;;;;;;;;;;22.14;52.28;97497.44;4183138;28;5844;-66
2023/10/09 17:19:14;;;;;;;;;;;;;;;22.14;52.38;97499.31;4199852;28;5790;-66
2023/10/09 17:21:19;;;;;;;;;;;;;;;22.12;52.27;97504.97;4199456;28;5947;-66
2023/10/09 17:23:23;;;;;;;;;;;;;;;22.12;52.04;97506.84;4199410;28;5722;-67
2023/10/09 17:25:26;;;;;;;;;;;;;;;22.11;52.56;97510.59;4199600;28;5698;-67
2023/10/09 17:27:29;;;;;;;;;;;;;;;22.10;52.40;97517.03;4196928;28;5899;-66
2023/10/09 17:29:36;;;;;;;;;;;;;;;22.08;52.42;97509.19;4194617;28;5785;-66
2023/10/09 17:31:39;;;;;;;;;;;;;;;22.07;52.32;97512.94;4199398;28;5785;-67
2023/10/09 17:33:43;;;;;;;;;;;;;;;22.06;52.46;97512.13;4194858;28;5687;-67
2023/10/09 17:35:46;;;;;;;;;;;;;;;22.04;53.03;97511.53;4197828;28;5706;-66
2023/10/09 17:37:49;;;;;;;;;;;;;;;22.05;52.64;97515.84;4199815;28;5812;-67